This is the latest recevied weather packets stored in our database for station/object EA7RX-4. If no packets are shown the sender has not sent any weather packets the latest 1 day(s).
| Time | Temp. | Humidity | Pressure | Rain* | Wind** | Luminosity | Snow |
|---|---|---|---|---|---|---|---|
| 1777983603 | 15° C | 39% | 1010.6 hPa | 0 mm | 3.13 m/s, 233° | 196 W/m² | - |
| 1777983003 | 14.44° C | 41% | 1010.7 hPa | 0 mm | 3.58 m/s, 233° | 1046 W/m² | - |
| 1777982403 | 14.44° C | 43% | 1010.6 hPa | 0 mm | 2.24 m/s, 252° | 173 W/m² | - |
| 1777981803 | 13.89° C | 46% | 1010.8 hPa | 0 mm | 2.68 m/s, 228° | 497 W/m² | - |
| 1777981203 | 13.33° C | 48% | 1010.8 hPa | 0 mm | 4.02 m/s, 243° | 449 W/m² | - |
| 1777980603 | 13.33° C | 50% | 1010.9 hPa | 0 mm | 3.58 m/s, 236° | 285 W/m² | - |
| 1777980003 | 13.89° C | 49% | 1010.9 hPa | 0 mm | 1.79 m/s, 244° | 215 W/m² | - |
| 1777979403 | 13.89° C | 50% | 1010.9 hPa | 0 mm | 2.24 m/s, 234° | 1079 W/m² | - |
| 1777978803 | 12.78° C | 52% | 1010.9 hPa | 0 mm | 1.34 m/s, 247° | 322 W/m² | - |
| 1777978203 | 12.78° C | 51% | 1011.3 hPa | 0 mm | 1.79 m/s, 234° | 262 W/m² | - |
| 1777977603 | 12.78° C | 52% | 1011.2 hPa | 0 mm | 2.24 m/s, 241° | 194 W/m² | - |
| 1777977003 | 13.89° C | 47% | 1011.2 hPa | 0 mm | 0.45 m/s, 72° | 241 W/m² | - |
| 1777976403 | 13.89° C | 49% | 1011.3 hPa | 0 mm | 1.34 m/s, 6° | 1044 W/m² | - |
| 1777975803 | 13.33° C | 51% | 1011.2 hPa | 0 mm | 1.34 m/s, 221° | 915 W/m² | - |
| 1777975203 | 13.33° C | 51% | 1011.5 hPa | 0 mm | 1.34 m/s, 316° | 508 W/m² | - |
| 1777974603 | 12.22° C | 52% | 1011.4 hPa | 0 mm | 0.89 m/s, 31° | 818 W/m² | - |
| 1777974003 | 12.22° C | 54% | 1011.3 hPa | 0 mm | 1.79 m/s, 344° | 169 W/m² | - |
| 1777973403 | 12.78° C | 54% | 1011.2 hPa | 0 mm | 1.34 m/s, 17° | 759 W/m² | - |
| 1777972803 | 12.22° C | 54% | 1011 hPa | 0 mm | 1.79 m/s, 50° | 182 W/m² | - |
| 1777972203 | 12.22° C | 54% | 1011.2 hPa | 0 mm | 1.79 m/s, 37° | 748 W/m² | - |
| 1777971603 | 12.22° C | 54% | 1011.3 hPa | 0 mm | 1.79 m/s, 42° | 548 W/m² | - |
| 1777971003 | 12.22° C | 54% | 1011.3 hPa | 0 mm | 1.79 m/s, 45° | 669 W/m² | - |
| 1777970403 | 12.22° C | 57% | 1011.2 hPa | 0 mm | 1.79 m/s, 46° | 568 W/m² | - |
| 1777969803 | 12.22° C | 58% | 1011.4 hPa | 0 mm | 1.34 m/s, 46° | 613 W/m² | - |
| 1777969203 | 11.67° C | 61% | 1011.3 hPa | 0 mm | 1.79 m/s, 59° | 525 W/m² | - |
* Rain latest hour (hover to see other rain measurements)
** Current wind speed in m/s (hover to see current wind gust speed)